sensor_id;sensor_type;location;lat;lon;timestamp;P1;durP1;ratioP1;P2;durP2;ratioP2
32347;SDS011;18821;44.800;10.326;2023-04-29T00:02:05;7.63;;;3.28;;
32347;SDS011;18821;44.800;10.326;2023-04-29T00:04:31;6.78;;;2.80;;
32347;SDS011;18821;44.800;10.326;2023-04-29T00:06:58;9.60;;;3.22;;
32347;SDS011;18821;44.800;10.326;2023-04-29T00:09:24;4.15;;;2.50;;
32347;SDS011;18821;44.800;10.326;2023-04-29T00:11:50;5.30;;;2.83;;
32347;SDS011;18821;44.800;10.326;2023-04-29T00:14:17;11.13;;;3.38;;
32347;SDS011;18821;44.800;10.326;2023-04-29T00:16:43;6.53;;;3.13;;
32347;SDS011;18821;44.800;10.326;2023-04-29T00:19:08;10.25;;;4.13;;
32347;SDS011;18821;44.800;10.326;2023-04-29T00:21:34;5.03;;;3.00;;
32347;SDS011;18821;44.800;10.326;2023-04-29T00:24:00;10.63;;;3.28;;
32347;SDS011;18821;44.800;10.326;2023-04-29T00:26:26;10.18;;;4.30;;
32347;SDS011;18821;44.800;10.326;2023-04-29T00:28:53;8.95;;;3.90;;
32347;SDS011;18821;44.800;10.326;2023-04-29T00:31:19;10.82;;;3.78;;
32347;SDS011;18821;44.800;10.326;2023-04-29T00:33:46;10.90;;;4.35;;
32347;SDS011;18821;44.800;10.326;2023-04-29T00:36:13;7.32;;;3.63;;
32347;SDS011;18821;44.800;10.326;2023-04-29T00:38:38;8.80;;;4.03;;
32347;SDS011;18821;44.800;10.326;2023-04-29T00:41:04;7.18;;;4.10;;
32347;SDS011;18821;44.800;10.326;2023-04-29T00:43:30;9.23;;;4.43;;
32347;SDS011;18821;44.800;10.326;2023-04-29T00:45:56;11.00;;;4.80;;
32347;SDS011;18821;44.800;10.326;2023-04-29T00:48:22;10.70;;;4.45;;
32347;SDS011;18821;44.800;10.326;2023-04-29T00:50:48;14.02;;;5.40;;
32347;SDS011;18821;44.800;10.326;2023-04-29T00:53:15;12.82;;;5.25;;
32347;SDS011;18821;44.800;10.326;2023-04-29T00:55:43;8.38;;;4.75;;
32347;SDS011;18821;44.800;10.326;2023-04-29T00:58:12;8.40;;;4.75;;
32347;SDS011;18821;44.800;10.326;2023-04-29T01:00:38;8.55;;;6.00;;
32347;SDS011;18821;44.800;10.326;2023-04-29T01:03:06;12.93;;;6.45;;
32347;SDS011;18821;44.800;10.326;2023-04-29T01:05:33;14.85;;;5.72;;
32347;SDS011;18821;44.800;10.326;2023-04-29T01:11:01;9.93;;;5.88;;
32347;SDS011;18821;44.800;10.326;2023-04-29T01:16:22;16.02;;;6.15;;
32347;SDS011;18821;44.800;10.326;2023-04-29T01:18:58;10.38;;;5.60;;
32347;SDS011;18821;44.800;10.326;2023-04-29T01:21:43;11.57;;;5.97;;
32347;SDS011;18821;44.800;10.326;2023-04-29T01:24:14;15.35;;;6.50;;
32347;SDS011;18821;44.800;10.326;2023-04-29T01:26:45;12.27;;;6.55;;
32347;SDS011;18821;44.800;10.326;2023-04-29T01:33:04;12.43;;;5.95;;
32347;SDS011;18821;44.800;10.326;2023-04-29T01:38:33;9.40;;;6.35;;
32347;SDS011;18821;44.800;10.326;2023-04-29T01:41:15;14.52;;;6.30;;
32347;SDS011;18821;44.800;10.326;2023-04-29T01:43:50;15.57;;;7.40;;
32347;SDS011;18821;44.800;10.326;2023-04-29T01:46:21;12.98;;;7.28;;
32347;SDS011;18821;44.800;10.326;2023-04-29T01:48:53;15.63;;;8.15;;
32347;SDS011;18821;44.800;10.326;2023-04-29T01:51:20;15.18;;;7.40;;
32347;SDS011;18821;44.800;10.326;2023-04-29T01:53:46;10.00;;;7.60;;
32347;SDS011;18821;44.800;10.326;2023-04-29T01:56:14;18.38;;;7.80;;
32347;SDS011;18821;44.800;10.326;2023-04-29T01:58:57;16.02;;;8.82;;
32347;SDS011;18821;44.800;10.326;2023-04-29T02:01:43;16.98;;;8.82;;
32347;SDS011;18821;44.800;10.326;2023-04-29T02:04:09;21.63;;;9.75;;
32347;SDS011;18821;44.800;10.326;2023-04-29T02:06:35;15.68;;;8.98;;
32347;SDS011;18821;44.800;10.326;2023-04-29T02:09:03;12.32;;;8.52;;
32347;SDS011;18821;44.800;10.326;2023-04-29T02:11:31;16.63;;;8.95;;
32347;SDS011;18821;44.800;10.326;2023-04-29T02:13:57;19.60;;;9.60;;
32347;SDS011;18821;44.800;10.326;2023-04-29T02:16:23;17.48;;;9.20;;
32347;SDS011;18821;44.800;10.326;2023-04-29T02:18:55;17.45;;;9.55;;
32347;SDS011;18821;44.800;10.326;2023-04-29T02:21:21;13.57;;;8.88;;
32347;SDS011;18821;44.800;10.326;2023-04-29T02:23:47;16.33;;;9.50;;
32347;SDS011;18821;44.800;10.326;2023-04-29T02:26:12;22.38;;;10.55;;
32347;SDS011;18821;44.800;10.326;2023-04-29T02:28:39;15.40;;;9.77;;
32347;SDS011;18821;44.800;10.326;2023-04-29T02:31:05;20.70;;;9.48;;
32347;SDS011;18821;44.800;10.326;2023-04-29T02:33:31;18.77;;;10.05;;
32347;SDS011;18821;44.800;10.326;2023-04-29T02:35:57;17.73;;;9.38;;
32347;SDS011;18821;44.800;10.326;2023-04-29T02:38:26;22.15;;;10.15;;
32347;SDS011;18821;44.800;10.326;2023-04-29T02:40:52;17.02;;;10.15;;
32347;SDS011;18821;44.800;10.326;2023-04-29T02:43:20;18.63;;;9.77;;
32347;SDS011;18821;44.800;10.326;2023-04-29T02:45:46;18.25;;;9.77;;
32347;SDS011;18821;44.800;10.326;2023-04-29T02:48:12;20.42;;;10.90;;
32347;SDS011;18821;44.800;10.326;2023-04-29T02:50:38;17.73;;;9.88;;
32347;SDS011;18821;44.800;10.326;2023-04-29T02:53:04;19.35;;;10.80;;
32347;SDS011;18821;44.800;10.326;2023-04-29T02:55:31;19.70;;;10.30;;
32347;SDS011;18821;44.800;10.326;2023-04-29T02:58:04;19.55;;;10.93;;
32347;SDS011;18821;44.800;10.326;2023-04-29T03:00:30;18.42;;;10.38;;
32347;SDS011;18821;44.800;10.326;2023-04-29T03:02:56;16.70;;;10.20;;
32347;SDS011;18821;44.800;10.326;2023-04-29T03:05:23;17.70;;;10.30;;
32347;SDS011;18821;44.800;10.326;2023-04-29T03:07:48;19.50;;;10.27;;
32347;SDS011;18821;44.800;10.326;2023-04-29T03:10:14;20.85;;;9.95;;
32347;SDS011;18821;44.800;10.326;2023-04-29T03:12:42;16.63;;;9.88;;
32347;SDS011;18821;44.800;10.326;2023-04-29T03:15:08;15.10;;;10.40;;
32347;SDS011;18821;44.800;10.326;2023-04-29T03:17:35;15.15;;;10.45;;
32347;SDS011;18821;44.800;10.326;2023-04-29T03:20:01;17.70;;;9.68;;
32347;SDS011;18821;44.800;10.326;2023-04-29T03:22:28;16.65;;;11.02;;
32347;SDS011;18821;44.800;10.326;2023-04-29T03:24:54;17.90;;;10.93;;
32347;SDS011;18821;44.800;10.326;2023-04-29T03:27:20;19.40;;;10.63;;
32347;SDS011;18821;44.800;10.326;2023-04-29T03:29:47;15.48;;;10.45;;
32347;SDS011;18821;44.800;10.326;2023-04-29T03:32:13;17.77;;;11.23;;
32347;SDS011;18821;44.800;10.326;2023-04-29T03:34:40;20.35;;;10.98;;
32347;SDS011;18821;44.800;10.326;2023-04-29T03:37:24;17.10;;;10.52;;
32347;SDS011;18821;44.800;10.326;2023-04-29T03:39:58;20.55;;;9.93;;
32347;SDS011;18821;44.800;10.326;2023-04-29T03:42:23;17.45;;;10.60;;
32347;SDS011;18821;44.800;10.326;2023-04-29T03:44:49;27.42;;;10.73;;
32347;SDS011;18821;44.800;10.326;2023-04-29T03:47:15;22.42;;;11.70;;
32347;SDS011;18821;44.800;10.326;2023-04-29T03:49:41;16.45;;;10.88;;
32347;SDS011;18821;44.800;10.326;2023-04-29T03:52:08;19.15;;;10.70;;
32347;SDS011;18821;44.800;10.326;2023-04-29T03:54:34;20.17;;;11.32;;
32347;SDS011;18821;44.800;10.326;2023-04-29T03:57:00;20.20;;;11.52;;
32347;SDS011;18821;44.800;10.326;2023-04-29T03:59:28;19.27;;;11.63;;
32347;SDS011;18821;44.800;10.326;2023-04-29T04:01:54;19.52;;;11.50;;
32347;SDS011;18821;44.800;10.326;2023-04-29T04:04:20;18.80;;;12.13;;
32347;SDS011;18821;44.800;10.326;2023-04-29T04:06:48;19.13;;;10.98;;
32347;SDS011;18821;44.800;10.326;2023-04-29T04:09:17;24.23;;;12.13;;
32347;SDS011;18821;44.800;10.326;2023-04-29T04:11:43;23.58;;;11.77;;
32347;SDS011;18821;44.800;10.326;2023-04-29T04:14:10;21.58;;;12.05;;
32347;SDS011;18821;44.800;10.326;2023-04-29T04:16:37;18.23;;;10.45;;
32347;SDS011;18821;44.800;10.326;2023-04-29T04:19:03;24.05;;;12.25;;
32347;SDS011;18821;44.800;10.326;2023-04-29T04:21:31;24.95;;;11.30;;
32347;SDS011;18821;44.800;10.326;2023-04-29T04:24:03;20.88;;;11.40;;
32347;SDS011;18821;44.800;10.326;2023-04-29T04:26:29;21.13;;;10.98;;
32347;SDS011;18821;44.800;10.326;2023-04-29T04:29:13;18.83;;;10.23;;
32347;SDS011;18821;44.800;10.326;2023-04-29T04:31:55;20.92;;;10.68;;
32347;SDS011;18821;44.800;10.326;2023-04-29T04:34:22;19.85;;;10.00;;
32347;SDS011;18821;44.800;10.326;2023-04-29T04:36:50;16.05;;;9.15;;
32347;SDS011;18821;44.800;10.326;2023-04-29T04:39:17;15.93;;;9.88;;
32347;SDS011;18821;44.800;10.326;2023-04-29T04:41:43;18.33;;;10.02;;
32347;SDS011;18821;44.800;10.326;2023-04-29T04:44:10;19.55;;;10.38;;
32347;SDS011;18821;44.800;10.326;2023-04-29T04:46:58;20.10;;;10.70;;
32347;SDS011;18821;44.800;10.326;2023-04-29T04:49:46;21.85;;;10.25;;
32347;SDS011;18821;44.800;10.326;2023-04-29T04:52:14;21.65;;;10.38;;
32347;SDS011;18821;44.800;10.326;2023-04-29T04:54:44;18.63;;;10.40;;
32347;SDS011;18821;44.800;10.326;2023-04-29T04:57:16;21.80;;;11.15;;
32347;SDS011;18821;44.800;10.326;2023-04-29T04:59:43;19.60;;;10.40;;
32347;SDS011;18821;44.800;10.326;2023-04-29T05:02:09;19.88;;;10.32;;
32347;SDS011;18821;44.800;10.326;2023-04-29T05:04:35;25.58;;;10.85;;
32347;SDS011;18821;44.800;10.326;2023-04-29T05:07:01;19.65;;;10.57;;
32347;SDS011;18821;44.800;10.326;2023-04-29T05:09:32;29.48;;;10.43;;
32347;SDS011;18821;44.800;10.326;2023-04-29T05:11:58;22.27;;;10.65;;
32347;SDS011;18821;44.800;10.326;2023-04-29T05:14:27;16.27;;;9.25;;
32347;SDS011;18821;44.800;10.326;2023-04-29T05:16:57;14.00;;;9.63;;
32347;SDS011;18821;44.800;10.326;2023-04-29T05:19:23;17.67;;;9.10;;
32347;SDS011;18821;44.800;10.326;2023-04-29T05:21:49;16.05;;;9.45;;
32347;SDS011;18821;44.800;10.326;2023-04-29T05:24:16;13.82;;;8.88;;
32347;SDS011;18821;44.800;10.326;2023-04-29T05:26:43;17.00;;;8.77;;
32347;SDS011;18821;44.800;10.326;2023-04-29T05:29:09;14.45;;;8.60;;
32347;SDS011;18821;44.800;10.326;2023-04-29T05:31:46;84.90;;;11.95;;
32347;SDS011;18821;44.800;10.326;2023-04-29T05:34:12;27.35;;;8.65;;
32347;SDS011;18821;44.800;10.326;2023-04-29T05:36:38;17.27;;;7.95;;
32347;SDS011;18821;44.800;10.326;2023-04-29T05:39:04;18.40;;;7.57;;
32347;SDS011;18821;44.800;10.326;2023-04-29T05:41:29;17.67;;;8.95;;
32347;SDS011;18821;44.800;10.326;2023-04-29T05:43:58;19.75;;;8.93;;
32347;SDS011;18821;44.800;10.326;2023-04-29T05:46:24;14.95;;;8.02;;
32347;SDS011;18821;44.800;10.326;2023-04-29T05:48:50;28.67;;;9.68;;
32347;SDS011;18821;44.800;10.326;2023-04-29T05:51:16;18.20;;;8.38;;
32347;SDS011;18821;44.800;10.326;2023-04-29T05:53:42;16.10;;;7.85;;
32347;SDS011;18821;44.800;10.326;2023-04-29T05:56:09;13.18;;;7.88;;
32347;SDS011;18821;44.800;10.326;2023-04-29T05:58:36;21.05;;;9.38;;
32347;SDS011;18821;44.800;10.326;2023-04-29T06:01:02;21.35;;;7.53;;
32347;SDS011;18821;44.800;10.326;2023-04-29T06:03:29;21.70;;;9.65;;
32347;SDS011;18821;44.800;10.326;2023-04-29T06:06:15;16.50;;;9.55;;
32347;SDS011;18821;44.800;10.326;2023-04-29T06:09:01;18.92;;;9.43;;
32347;SDS011;18821;44.800;10.326;2023-04-29T06:11:29;18.95;;;9.65;;
32347;SDS011;18821;44.800;10.326;2023-04-29T06:13:55;14.60;;;10.00;;
32347;SDS011;18821;44.800;10.326;2023-04-29T06:16:22;15.38;;;8.68;;
32347;SDS011;18821;44.800;10.326;2023-04-29T06:18:47;16.25;;;8.98;;
32347;SDS011;18821;44.800;10.326;2023-04-29T06:21:14;16.70;;;9.95;;
32347;SDS011;18821;44.800;10.326;2023-04-29T06:23:41;19.75;;;10.13;;
32347;SDS011;18821;44.800;10.326;2023-04-29T06:26:14;16.67;;;10.35;;
32347;SDS011;18821;44.800;10.326;2023-04-29T06:28:40;21.10;;;9.85;;
32347;SDS011;18821;44.800;10.326;2023-04-29T06:31:06;16.02;;;9.32;;
32347;SDS011;18821;44.800;10.326;2023-04-29T06:33:33;18.90;;;10.85;;
32347;SDS011;18821;44.800;10.326;2023-04-29T06:35:59;17.77;;;9.10;;
32347;SDS011;18821;44.800;10.326;2023-04-29T06:38:56;17.23;;;9.13;;
32347;SDS011;18821;44.800;10.326;2023-04-29T06:41:35;21.25;;;9.32;;
32347;SDS011;18821;44.800;10.326;2023-04-29T06:44:25;14.02;;;9.00;;
32347;SDS011;18821;44.800;10.326;2023-04-29T06:47:18;16.65;;;9.68;;
32347;SDS011;18821;44.800;10.326;2023-04-29T06:49:54;16.30;;;10.07;;
32347;SDS011;18821;44.800;10.326;2023-04-29T06:52:20;19.67;;;10.50;;
32347;SDS011;18821;44.800;10.326;2023-04-29T06:54:47;16.70;;;10.82;;
32347;SDS011;18821;44.800;10.326;2023-04-29T06:57:13;24.42;;;11.77;;
32347;SDS011;18821;44.800;10.326;2023-04-29T06:59:39;23.52;;;11.57;;
32347;SDS011;18821;44.800;10.326;2023-04-29T07:02:05;24.85;;;12.00;;
32347;SDS011;18821;44.800;10.326;2023-04-29T07:04:31;23.33;;;12.05;;
32347;SDS011;18821;44.800;10.326;2023-04-29T07:06:57;24.20;;;12.05;;
32347;SDS011;18821;44.800;10.326;2023-04-29T07:09:23;21.20;;;12.38;;
32347;SDS011;18821;44.800;10.326;2023-04-29T07:11:52;20.45;;;11.10;;
32347;SDS011;18821;44.800;10.326;2023-04-29T07:14:18;27.77;;;12.25;;
32347;SDS011;18821;44.800;10.326;2023-04-29T07:16:46;15.75;;;11.45;;
32347;SDS011;18821;44.800;10.326;2023-04-29T07:19:16;25.33;;;12.27;;
32347;SDS011;18821;44.800;10.326;2023-04-29T07:21:43;19.17;;;11.48;;
32347;SDS011;18821;44.800;10.326;2023-04-29T07:24:09;23.58;;;13.20;;
32347;SDS011;18821;44.800;10.326;2023-04-29T07:26:35;25.67;;;12.70;;
32347;SDS011;18821;44.800;10.326;2023-04-29T07:29:01;18.75;;;11.80;;
32347;SDS011;18821;44.800;10.326;2023-04-29T07:31:27;24.95;;;11.45;;
32347;SDS011;18821;44.800;10.326;2023-04-29T07:33:54;19.52;;;11.20;;
32347;SDS011;18821;44.800;10.326;2023-04-29T07:36:21;22.02;;;10.40;;
32347;SDS011;18821;44.800;10.326;2023-04-29T07:38:47;17.65;;;9.32;;
32347;SDS011;18821;44.800;10.326;2023-04-29T07:41:13;17.67;;;10.95;;
32347;SDS011;18821;44.800;10.326;2023-04-29T07:43:40;21.38;;;12.13;;
32347;SDS011;18821;44.800;10.326;2023-04-29T07:46:06;21.15;;;12.55;;
32347;SDS011;18821;44.800;10.326;2023-04-29T07:48:35;20.55;;;12.38;;
32347;SDS011;18821;44.800;10.326;2023-04-29T07:51:04;19.33;;;12.57;;
32347;SDS011;18821;44.800;10.326;2023-04-29T07:53:30;19.92;;;11.88;;
32347;SDS011;18821;44.800;10.326;2023-04-29T07:55:56;23.23;;;11.82;;
32347;SDS011;18821;44.800;10.326;2023-04-29T07:58:26;20.73;;;12.02;;
32347;SDS011;18821;44.800;10.326;2023-04-29T08:00:54;21.70;;;11.73;;
32347;SDS011;18821;44.800;10.326;2023-04-29T08:03:20;24.75;;;12.27;;
32347;SDS011;18821;44.800;10.326;2023-04-29T08:05:46;18.27;;;11.32;;
32347;SDS011;18821;44.800;10.326;2023-04-29T08:08:15;17.45;;;11.68;;
32347;SDS011;18821;44.800;10.326;2023-04-29T08:10:42;22.88;;;12.85;;
32347;SDS011;18821;44.800;10.326;2023-04-29T08:13:08;22.10;;;13.82;;
32347;SDS011;18821;44.800;10.326;2023-04-29T08:15:34;26.05;;;13.82;;
32347;SDS011;18821;44.800;10.326;2023-04-29T08:18:00;24.15;;;13.55;;
32347;SDS011;18821;44.800;10.326;2023-04-29T08:20:26;21.63;;;12.80;;
32347;SDS011;18821;44.800;10.326;2023-04-29T08:22:53;20.83;;;13.00;;
32347;SDS011;18821;44.800;10.326;2023-04-29T08:25:19;23.17;;;13.00;;
32347;SDS011;18821;44.800;10.326;2023-04-29T08:27:45;22.67;;;13.65;;
32347;SDS011;18821;44.800;10.326;2023-04-29T08:30:11;24.70;;;13.10;;
32347;SDS011;18821;44.800;10.326;2023-04-29T08:32:37;24.27;;;14.68;;
32347;SDS011;18821;44.800;10.326;2023-04-29T08:35:03;26.00;;;15.98;;
32347;SDS011;18821;44.800;10.326;2023-04-29T08:37:29;23.63;;;15.52;;
32347;SDS011;18821;44.800;10.326;2023-04-29T08:39:55;26.20;;;17.13;;
32347;SDS011;18821;44.800;10.326;2023-04-29T08:42:32;29.33;;;16.23;;
32347;SDS011;18821;44.800;10.326;2023-04-29T08:44:59;24.60;;;15.55;;
32347;SDS011;18821;44.800;10.326;2023-04-29T08:47:30;22.63;;;14.43;;
32347;SDS011;18821;44.800;10.326;2023-04-29T08:50:06;27.10;;;15.65;;
32347;SDS011;18821;44.800;10.326;2023-04-29T08:52:33;26.58;;;14.80;;
32347;SDS011;18821;44.800;10.326;2023-04-29T08:55:01;21.20;;;14.68;;
32347;SDS011;18821;44.800;10.326;2023-04-29T08:57:28;24.98;;;15.13;;
32347;SDS011;18821;44.800;10.326;2023-04-29T09:00:04;21.58;;;14.35;;
32347;SDS011;18821;44.800;10.326;2023-04-29T09:02:44;22.90;;;15.18;;
32347;SDS011;18821;44.800;10.326;2023-04-29T09:05:14;23.08;;;14.38;;
32347;SDS011;18821;44.800;10.326;2023-04-29T09:07:40;19.50;;;13.00;;
32347;SDS011;18821;44.800;10.326;2023-04-29T09:10:08;30.02;;;13.90;;
32347;SDS011;18821;44.800;10.326;2023-04-29T09:12:35;22.88;;;14.23;;
32347;SDS011;18821;44.800;10.326;2023-04-29T09:15:01;23.73;;;13.00;;
32347;SDS011;18821;44.800;10.326;2023-04-29T09:17:38;20.33;;;12.30;;
32347;SDS011;18821;44.800;10.326;2023-04-29T09:22:46;24.33;;;14.30;;
32347;SDS011;18821;44.800;10.326;2023-04-29T09:25:13;25.92;;;15.35;;
32347;SDS011;18821;44.800;10.326;2023-04-29T09:27:39;22.92;;;15.18;;
32347;SDS011;18821;44.800;10.326;2023-04-29T09:30:05;26.55;;;15.00;;
32347;SDS011;18821;44.800;10.326;2023-04-29T09:32:32;37.65;;;16.45;;
32347;SDS011;18821;44.800;10.326;2023-04-29T09:34:58;23.88;;;15.18;;
32347;SDS011;18821;44.800;10.326;2023-04-29T09:37:44;29.67;;;15.80;;
32347;SDS011;18821;44.800;10.326;2023-04-29T09:40:26;26.83;;;16.88;;
32347;SDS011;18821;44.800;10.326;2023-04-29T09:42:58;26.02;;;16.70;;
32347;SDS011;18821;44.800;10.326;2023-04-29T09:45:38;27.58;;;16.73;;
32347;SDS011;18821;44.800;10.326;2023-04-29T09:48:06;29.15;;;16.23;;
32347;SDS011;18821;44.800;10.326;2023-04-29T09:50:34;28.58;;;16.63;;
32347;SDS011;18821;44.800;10.326;2023-04-29T09:53:03;27.10;;;17.63;;
32347;SDS011;18821;44.800;10.326;2023-04-29T09:58:33;27.58;;;17.58;;
32347;SDS011;18821;44.800;10.326;2023-04-29T10:01:03;26.45;;;16.73;;
32347;SDS011;18821;44.800;10.326;2023-04-29T10:03:33;29.23;;;16.98;;
32347;SDS011;18821;44.800;10.326;2023-04-29T10:06:00;27.63;;;17.45;;
32347;SDS011;18821;44.800;10.326;2023-04-29T10:08:28;26.52;;;17.85;;
32347;SDS011;18821;44.800;10.326;2023-04-29T10:11:01;29.98;;;18.17;;
32347;SDS011;18821;44.800;10.326;2023-04-29T10:13:28;29.20;;;19.13;;
32347;SDS011;18821;44.800;10.326;2023-04-29T10:15:57;32.15;;;18.33;;
32347;SDS011;18821;44.800;10.326;2023-04-29T10:18:32;29.05;;;17.38;;
32347;SDS011;18821;44.800;10.326;2023-04-29T10:21:02;26.77;;;16.90;;
32347;SDS011;18821;44.800;10.326;2023-04-29T10:23:31;28.40;;;17.67;;
32347;SDS011;18821;44.800;10.326;2023-04-29T10:25:58;27.98;;;17.42;;
32347;SDS011;18821;44.800;10.326;2023-04-29T10:28:29;26.05;;;17.35;;
32347;SDS011;18821;44.800;10.326;2023-04-29T10:30:57;22.75;;;15.13;;
32347;SDS011;18821;44.800;10.326;2023-04-29T10:33:29;25.80;;;16.20;;
32347;SDS011;18821;44.800;10.326;2023-04-29T10:35:57;24.02;;;14.82;;
32347;SDS011;18821;44.800;10.326;2023-04-29T10:38:27;21.00;;;14.88;;
32347;SDS011;18821;44.800;10.326;2023-04-29T10:40:58;22.95;;;15.35;;
32347;SDS011;18821;44.800;10.326;2023-04-29T10:43:28;20.67;;;13.55;;
32347;SDS011;18821;44.800;10.326;2023-04-29T10:48:44;28.15;;;15.70;;
32347;SDS011;18821;44.800;10.326;2023-04-29T10:51:10;24.88;;;16.45;;
32347;SDS011;18821;44.800;10.326;2023-04-29T10:53:58;20.92;;;15.55;;
32347;SDS011;18821;44.800;10.326;2023-04-29T10:56:35;23.42;;;17.17;;
32347;SDS011;18821;44.800;10.326;2023-04-29T10:59:09;26.77;;;17.27;;
32347;SDS011;18821;44.800;10.326;2023-04-29T11:04:07;24.60;;;15.55;;
32347;SDS011;18821;44.800;10.326;2023-04-29T11:14:09;28.13;;;16.52;;
32347;SDS011;18821;44.800;10.326;2023-04-29T11:16:36;24.05;;;15.60;;
32347;SDS011;18821;44.800;10.326;2023-04-29T11:19:13;23.10;;;16.05;;
32347;SDS011;18821;44.800;10.326;2023-04-29T11:21:40;25.73;;;16.80;;
32347;SDS011;18821;44.800;10.326;2023-04-29T11:24:06;21.77;;;14.77;;
32347;SDS011;18821;44.800;10.326;2023-04-29T11:26:35;22.30;;;13.98;;
32347;SDS011;18821;44.800;10.326;2023-04-29T11:29:02;25.83;;;15.63;;
32347;SDS011;18821;44.800;10.326;2023-04-29T11:31:30;27.23;;;16.02;;
32347;SDS011;18821;44.800;10.326;2023-04-29T11:33:56;23.55;;;16.10;;
32347;SDS011;18821;44.800;10.326;2023-04-29T11:36:23;21.20;;;15.55;;
32347;SDS011;18821;44.800;10.326;2023-04-29T11:38:49;23.60;;;15.27;;
32347;SDS011;18821;44.800;10.326;2023-04-29T11:41:15;28.25;;;17.17;;
32347;SDS011;18821;44.800;10.326;2023-04-29T11:43:44;23.95;;;16.42;;
32347;SDS011;18821;44.800;10.326;2023-04-29T11:46:11;24.85;;;17.77;;
32347;SDS011;18821;44.800;10.326;2023-04-29T11:48:44;26.88;;;18.08;;
32347;SDS011;18821;44.800;10.326;2023-04-29T11:51:15;23.08;;;15.60;;
32347;SDS011;18821;44.800;10.326;2023-04-29T11:53:43;23.23;;;16.67;;
32347;SDS011;18821;44.800;10.326;2023-04-29T11:56:09;22.13;;;15.75;;
32347;SDS011;18821;44.800;10.326;2023-04-29T11:58:35;26.08;;;15.65;;
32347;SDS011;18821;44.800;10.326;2023-04-29T12:01:02;22.20;;;15.57;;
32347;SDS011;18821;44.800;10.326;2023-04-29T12:03:30;29.83;;;15.45;;
32347;SDS011;18821;44.800;10.326;2023-04-29T12:05:56;26.23;;;16.65;;
32347;SDS011;18821;44.800;10.326;2023-04-29T12:08:23;23.45;;;15.65;;
32347;SDS011;18821;44.800;10.326;2023-04-29T12:10:54;26.38;;;15.50;;
32347;SDS011;18821;44.800;10.326;2023-04-29T12:13:21;25.00;;;14.68;;
32347;SDS011;18821;44.800;10.326;2023-04-29T12:15:51;20.67;;;14.70;;
32347;SDS011;18821;44.800;10.326;2023-04-29T12:18:18;22.30;;;13.88;;
32347;SDS011;18821;44.800;10.326;2023-04-29T12:20:47;21.88;;;14.18;;
32347;SDS011;18821;44.800;10.326;2023-04-29T12:23:18;19.80;;;13.02;;
32347;SDS011;18821;44.800;10.326;2023-04-29T12:28:20;18.30;;;12.93;;
32347;SDS011;18821;44.800;10.326;2023-04-29T12:30:47;21.77;;;12.68;;
32347;SDS011;18821;44.800;10.326;2023-04-29T12:33:18;15.50;;;12.57;;
32347;SDS011;18821;44.800;10.326;2023-04-29T12:35:47;20.13;;;12.60;;
32347;SDS011;18821;44.800;10.326;2023-04-29T12:38:20;18.92;;;11.45;;
32347;SDS011;18821;44.800;10.326;2023-04-29T12:40:53;18.30;;;13.68;;
32347;SDS011;18821;44.800;10.326;2023-04-29T12:43:30;20.42;;;14.05;;
32347;SDS011;18821;44.800;10.326;2023-04-29T12:46:03;19.13;;;14.10;;
32347;SDS011;18821;44.800;10.326;2023-04-29T12:48:34;23.70;;;14.70;;
32347;SDS011;18821;44.800;10.326;2023-04-29T12:51:11;19.07;;;13.43;;
32347;SDS011;18821;44.800;10.326;2023-04-29T12:53:37;20.13;;;12.93;;
32347;SDS011;18821;44.800;10.326;2023-04-29T12:56:04;17.30;;;12.18;;
32347;SDS011;18821;44.800;10.326;2023-04-29T12:58:30;21.17;;;14.75;;
32347;SDS011;18821;44.800;10.326;2023-04-29T13:00:58;17.95;;;12.35;;
32347;SDS011;18821;44.800;10.326;2023-04-29T13:03:24;19.08;;;12.63;;
32347;SDS011;18821;44.800;10.326;2023-04-29T13:05:52;17.58;;;12.02;;
32347;SDS011;18821;44.800;10.326;2023-04-29T13:08:24;17.42;;;11.75;;
32347;SDS011;18821;44.800;10.326;2023-04-29T13:10:50;15.38;;;10.85;;
32347;SDS011;18821;44.800;10.326;2023-04-29T13:13:16;14.10;;;10.35;;
32347;SDS011;18821;44.800;10.326;2023-04-29T13:15:42;16.20;;;11.25;;
32347;SDS011;18821;44.800;10.326;2023-04-29T13:18:07;18.95;;;9.43;;
32347;SDS011;18821;44.800;10.326;2023-04-29T13:20:33;18.02;;;9.88;;
32347;SDS011;18821;44.800;10.326;2023-04-29T13:22:59;13.15;;;8.77;;
32347;SDS011;18821;44.800;10.326;2023-04-29T13:25:25;14.73;;;9.65;;
32347;SDS011;18821;44.800;10.326;2023-04-29T13:27:51;12.88;;;8.07;;
32347;SDS011;18821;44.800;10.326;2023-04-29T13:30:17;10.88;;;7.82;;
32347;SDS011;18821;44.800;10.326;2023-04-29T13:32:44;14.23;;;8.00;;
32347;SDS011;18821;44.800;10.326;2023-04-29T13:35:10;16.38;;;10.57;;
32347;SDS011;18821;44.800;10.326;2023-04-29T13:37:36;12.43;;;7.32;;
32347;SDS011;18821;44.800;10.326;2023-04-29T13:40:02;12.80;;;8.50;;
32347;SDS011;18821;44.800;10.326;2023-04-29T13:42:29;13.05;;;8.90;;
32347;SDS011;18821;44.800;10.326;2023-04-29T13:44:55;14.52;;;8.95;;
32347;SDS011;18821;44.800;10.326;2023-04-29T13:47:21;14.52;;;9.00;;
32347;SDS011;18821;44.800;10.326;2023-04-29T13:49:47;13.45;;;8.30;;
32347;SDS011;18821;44.800;10.326;2023-04-29T13:52:13;15.38;;;8.82;;
32347;SDS011;18821;44.800;10.326;2023-04-29T13:54:40;12.85;;;9.38;;
32347;SDS011;18821;44.800;10.326;2023-04-29T13:57:05;12.48;;;7.93;;
32347;SDS011;18821;44.800;10.326;2023-04-29T13:59:31;9.25;;;6.70;;
32347;SDS011;18821;44.800;10.326;2023-04-29T14:01:58;13.45;;;6.53;;
32347;SDS011;18821;44.800;10.326;2023-04-29T14:04:24;14.95;;;6.10;;
32347;SDS011;18821;44.800;10.326;2023-04-29T14:06:51;7.95;;;5.90;;
32347;SDS011;18821;44.800;10.326;2023-04-29T14:09:17;12.65;;;5.30;;
32347;SDS011;18821;44.800;10.326;2023-04-29T14:11:44;13.02;;;6.03;;
32347;SDS011;18821;44.800;10.326;2023-04-29T14:14:10;9.82;;;6.20;;
32347;SDS011;18821;44.800;10.326;2023-04-29T14:16:37;10.75;;;6.40;;
32347;SDS011;18821;44.800;10.326;2023-04-29T14:19:03;12.95;;;7.47;;
32347;SDS011;18821;44.800;10.326;2023-04-29T14:21:29;9.90;;;6.13;;
32347;SDS011;18821;44.800;10.326;2023-04-29T14:23:57;13.48;;;7.13;;
32347;SDS011;18821;44.800;10.326;2023-04-29T14:26:24;11.60;;;7.95;;
32347;SDS011;18821;44.800;10.326;2023-04-29T14:28:52;8.15;;;5.82;;
32347;SDS011;18821;44.800;10.326;2023-04-29T14:31:33;12.90;;;7.35;;
32347;SDS011;18821;44.800;10.326;2023-04-29T14:34:02;13.93;;;7.60;;
32347;SDS011;18821;44.800;10.326;2023-04-29T14:36:28;12.65;;;7.72;;
32347;SDS011;18821;44.800;10.326;2023-04-29T14:38:57;14.93;;;7.88;;
32347;SDS011;18821;44.800;10.326;2023-04-29T14:41:23;13.73;;;8.40;;
32347;SDS011;18821;44.800;10.326;2023-04-29T14:43:49;13.13;;;7.45;;
32347;SDS011;18821;44.800;10.326;2023-04-29T14:46:15;13.55;;;7.72;;
32347;SDS011;18821;44.800;10.326;2023-04-29T14:48:41;15.18;;;9.00;;
32347;SDS011;18821;44.800;10.326;2023-04-29T14:51:07;17.33;;;9.15;;
32347;SDS011;18821;44.800;10.326;2023-04-29T14:53:33;16.00;;;9.60;;
32347;SDS011;18821;44.800;10.326;2023-04-29T14:55:59;17.33;;;9.52;;